createdAt,value
2022-09-15T00:00:32.797Z,88.50
2022-09-15T00:02:59.528Z,88.10
2022-09-15T00:05:26.224Z,88.20
2022-09-15T00:07:52.848Z,88.07
2022-09-15T00:10:19.622Z,87.81
2022-09-15T00:12:46.279Z,88.24
2022-09-15T00:15:14.894Z,88.14
2022-09-15T00:17:43.828Z,87.96
2022-09-15T00:20:11.019Z,87.92
2022-09-15T00:22:38.283Z,88.33
2022-09-15T00:25:05.632Z,88.08
2022-09-15T00:27:33.683Z,88.43
2022-09-15T00:30:00.801Z,88.23
2022-09-15T00:32:28.199Z,88.59
2022-09-15T00:34:54.819Z,88.74
2022-09-15T00:37:21.850Z,88.69
2022-09-15T00:39:49.230Z,89.16
2022-09-15T00:42:18.250Z,89.14
2022-09-15T00:44:47.801Z,89.08
2022-09-15T00:47:19.669Z,89.47
2022-09-15T00:49:49.413Z,89.66
2022-09-15T00:52:22.107Z,89.72
2022-09-15T00:54:54.504Z,89.48
2022-09-15T00:57:37.174Z,89.28
2022-09-15T01:00:09.097Z,89.38
2022-09-15T01:02:42.429Z,89.16
2022-09-15T01:05:13.129Z,89.08
2022-09-15T01:07:39.759Z,89.20
2022-09-15T01:10:12.262Z,88.99
2022-09-15T01:12:41.032Z,89.61
2022-09-15T01:15:08.353Z,89.51
2022-09-15T01:17:43.892Z,89.37
2022-09-15T01:20:38.416Z,89.72
2022-09-15T01:23:32.036Z,89.31
2022-09-15T01:26:33.729Z,89.31
2022-09-15T01:29:02.289Z,89.21
2022-09-15T01:32:10.458Z,89.57
2022-09-15T01:34:45.140Z,89.35
2022-09-15T01:37:17.995Z,89.15
2022-09-15T01:39:47.051Z,89.95
2022-09-15T01:42:16.650Z,89.60
2022-09-15T01:44:49.766Z,89.52
2022-09-15T01:47:20.533Z,89.34
2022-09-15T01:49:52.888Z,89.67
2022-09-15T01:52:22.597Z,89.78
2022-09-15T01:54:54.314Z,89.71
2022-09-15T01:57:21.938Z,89.68
2022-09-15T01:59:50.536Z,89.63
2022-09-15T02:02:22.953Z,89.68
2022-09-15T02:04:58.118Z,89.92
2022-09-15T02:07:45.025Z,90.04
2022-09-15T02:10:19.105Z,90.05
2022-09-15T02:12:55.448Z,89.98
2022-09-15T02:15:29.200Z,90.14
2022-09-15T02:17:59.291Z,90.45
2022-09-15T02:20:48.707Z,89.92
2022-09-15T02:23:26.944Z,89.67
2022-09-15T02:25:58.171Z,89.48
2022-09-15T02:28:31.671Z,89.36
2022-09-15T02:31:00.773Z,89.50
2022-09-15T02:33:33.405Z,89.10
2022-09-15T02:36:00.822Z,89.56
2022-09-15T02:38:33.428Z,89.15
2022-09-15T02:41:01.187Z,89.19
2022-09-15T02:43:30.579Z,89.05
2022-09-15T02:45:58.382Z,89.50
2022-09-15T02:48:28.084Z,89.52
2022-09-15T02:50:54.777Z,89.12
2022-09-15T02:53:21.422Z,88.73
2022-09-15T02:55:48.559Z,88.12
2022-09-15T02:58:15.230Z,87.92
2022-09-15T03:00:42.046Z,87.62
2022-09-15T03:03:08.845Z,87.23
2022-09-15T03:05:35.558Z,87.42
2022-09-15T03:08:02.477Z,87.64
2022-09-15T03:10:30.357Z,88.41
2022-09-15T03:12:56.987Z,89.23
2022-09-15T03:15:26.039Z,89.04
2022-09-15T03:17:53.680Z,88.95
2022-09-15T03:20:28.049Z,88.96
2022-09-15T03:22:54.803Z,88.54
2022-09-15T03:25:22.060Z,88.62
2022-09-15T03:27:51.794Z,88.37
2022-09-15T03:30:18.945Z,87.87
2022-09-15T03:32:45.644Z,87.91
2022-09-15T03:35:12.337Z,87.58
2022-09-15T03:37:39.928Z,87.85
2022-09-15T03:40:24.470Z,88.21
2022-09-15T03:42:51.132Z,88.68
2022-09-15T03:45:17.834Z,88.50
2022-09-15T03:47:44.436Z,88.52
2022-09-15T03:50:13.588Z,88.40
2022-09-15T03:52:40.216Z,88.23
2022-09-15T03:55:09.692Z,88.10
2022-09-15T03:57:36.404Z,88.24
2022-09-15T04:00:05.369Z,88.09
2022-09-15T04:02:32.108Z,87.86
2022-09-15T04:04:58.969Z,87.82
2022-09-15T04:07:26.080Z,87.80
2022-09-15T04:09:52.772Z,87.43
2022-09-15T04:12:19.567Z,87.94
2022-09-15T04:14:46.356Z,88.03
2022-09-15T04:17:12.954Z,88.51
2022-09-15T04:19:40.416Z,88.59
2022-09-15T04:22:08.323Z,89.35
2022-09-15T04:24:34.976Z,88.91
2022-09-15T04:27:01.591Z,88.75
2022-09-15T04:29:28.251Z,88.31
2022-09-15T04:31:54.969Z,88.12
2022-09-15T04:34:23.541Z,88.23
2022-09-15T04:36:50.551Z,88.13
2022-09-15T04:39:17.236Z,88.18
2022-09-15T04:41:43.804Z,88.11
2022-09-15T04:44:10.496Z,87.79
2022-09-15T04:46:39.457Z,87.64
2022-09-15T04:49:06.240Z,87.36
2022-09-15T04:51:33.064Z,87.47
2022-09-15T04:54:00.199Z,87.34
2022-09-15T04:56:27.422Z,87.53
2022-09-15T04:59:03.600Z,87.54
2022-09-15T05:01:35.372Z,87.65
2022-09-15T05:04:06.406Z,87.68
2022-09-15T05:06:35.055Z,87.63
2022-09-15T05:09:10.086Z,87.80
2022-09-15T05:11:37.754Z,87.69
2022-09-15T05:14:04.690Z,87.51
2022-09-15T05:16:32.099Z,87.56
2022-09-15T05:19:03.473Z,87.43
2022-09-15T05:21:30.649Z,87.51
2022-09-15T05:23:57.393Z,87.11
2022-09-15T05:26:26.619Z,87.07
2022-09-15T05:28:53.541Z,87.69
2022-09-15T05:31:23.115Z,87.46
2022-09-15T05:33:52.962Z,87.49
2022-09-15T05:36:21.292Z,87.17
2022-09-15T05:38:47.925Z,86.67
2022-09-15T05:41:17.040Z,86.56
2022-09-15T05:43:47.646Z,86.98
2022-09-15T05:46:15.733Z,86.98
2022-09-15T05:48:44.575Z,86.87
2022-09-15T05:51:12.265Z,86.75
2022-09-15T05:53:40.853Z,86.75
2022-09-15T05:56:16.128Z,86.89
2022-09-15T05:58:59.194Z,86.55
2022-09-15T06:01:30.146Z,86.25
2022-09-15T06:04:01.601Z,86.04
2022-09-15T06:06:30.481Z,85.77
2022-09-15T06:08:59.189Z,85.63
2022-09-15T06:11:29.026Z,85.31
2022-09-15T06:13:59.348Z,85.21
2022-09-15T06:16:26.915Z,85.05
2022-09-15T06:18:58.512Z,84.67
2022-09-15T06:21:27.252Z,84.08
2022-09-15T06:24:01.969Z,83.64
2022-09-15T06:26:29.386Z,83.55
2022-09-15T06:28:58.625Z,83.78
2022-09-15T06:31:27.293Z,84.14
2022-09-15T06:33:57.883Z,83.71
2022-09-15T06:36:29.247Z,83.26
2022-09-15T06:38:56.511Z,82.16
2022-09-15T06:41:25.882Z,81.37
2022-09-15T06:43:53.167Z,81.21
2022-09-15T06:46:22.695Z,80.87
2022-09-15T06:48:51.313Z,80.46
2022-09-15T06:51:19.906Z,80.85
2022-09-15T06:53:48.514Z,81.12
2022-09-15T06:56:18.022Z,81.03
2022-09-15T06:58:45.989Z,80.99
2022-09-15T07:01:20.948Z,81.57
2022-09-15T07:03:48.089Z,81.53
2022-09-15T07:06:15.013Z,81.57
2022-09-15T07:08:41.950Z,81.33
2022-09-15T07:11:10.955Z,81.16
2022-09-15T07:13:40.594Z,80.87
2022-09-15T07:16:12.060Z,81.02
2022-09-15T07:18:42.995Z,79.99
2022-09-15T07:21:16.618Z,79.88
2022-09-15T07:23:44.119Z,80.38
2022-09-15T07:26:21.926Z,80.73
2022-09-15T07:28:59.701Z,80.87
2022-09-15T07:31:28.864Z,80.89
2022-09-15T07:33:56.158Z,80.76
2022-09-15T07:36:25.988Z,80.74
2022-09-15T07:38:52.845Z,80.62
2022-09-15T07:41:28.463Z,80.04
2022-09-15T07:44:00.202Z,79.68
2022-09-15T07:46:30.215Z,79.54
2022-09-15T07:48:58.123Z,79.45
2022-09-15T07:51:25.851Z,79.83
2022-09-15T07:53:55.154Z,80.11
2022-09-15T07:56:23.323Z,79.45
2022-09-15T07:58:51.182Z,79.22
2022-09-15T08:01:19.290Z,79.00
2022-09-15T08:03:53.821Z,78.66
2022-09-15T08:06:23.134Z,78.84
2022-09-15T08:08:53.186Z,79.28
2022-09-15T08:11:23.149Z,79.26
2022-09-15T08:13:53.578Z,79.18
2022-09-15T08:16:29.625Z,78.98
2022-09-15T08:18:57.896Z,79.53
2022-09-15T08:21:25.035Z,79.25
2022-09-15T08:23:58.299Z,80.14
2022-09-15T08:26:26.451Z,79.44
2022-09-15T08:28:53.578Z,79.02
2022-09-15T08:31:20.422Z,78.53
2022-09-15T08:33:56.852Z,78.07
2022-09-15T08:36:28.326Z,76.60
2022-09-15T08:38:55.052Z,75.65
2022-09-15T08:41:28.175Z,75.34
2022-09-15T08:44:11.046Z,75.20
2022-09-15T08:46:41.239Z,75.48
2022-09-15T08:49:23.472Z,75.24
2022-09-15T08:52:00.732Z,75.31
2022-09-15T08:54:29.774Z,76.04
2022-09-15T08:56:58.497Z,75.40
2022-09-15T08:59:31.547Z,74.83
2022-09-15T09:02:33.568Z,74.25
2022-09-15T09:05:02.942Z,73.91
2022-09-15T09:08:10.780Z,74.29
2022-09-15T09:10:51.777Z,74.71
2022-09-15T09:13:21.338Z,74.81
2022-09-15T09:16:06.740Z,73.93
2022-09-15T09:18:46.954Z,72.15
2022-09-15T09:21:13.543Z,71.47
2022-09-15T09:23:47.558Z,71.42
2022-09-15T09:26:15.194Z,71.14
2022-09-15T09:28:51.293Z,70.02
2022-09-15T09:31:21.795Z,68.95
2022-09-15T09:34:22.355Z,69.65
2022-09-15T09:36:57.356Z,69.70
2022-09-15T09:39:24.787Z,69.99
2022-09-15T09:41:51.398Z,70.37
2022-09-15T09:44:19.680Z,70.06
2022-09-15T09:46:47.450Z,70.02
2022-09-15T09:49:25.222Z,70.05
2022-09-15T09:52:02.419Z,68.82
2022-09-15T09:54:31.691Z,68.12
2022-09-15T09:57:27.915Z,65.68
2022-09-15T09:59:54.576Z,63.25
2022-09-15T10:02:27.367Z,62.38
2022-09-15T10:05:12.354Z,61.67
2022-09-15T10:07:41.317Z,61.13
2022-09-15T10:10:18.967Z,61.30
2022-09-15T10:12:45.610Z,60.87
2022-09-15T10:15:28.821Z,61.63
2022-09-15T10:17:56.501Z,60.76
2022-09-15T10:20:28.759Z,60.75
2022-09-15T10:23:13.808Z,61.47
2022-09-15T10:25:57.924Z,61.82
2022-09-15T10:28:26.795Z,63.88
2022-09-15T10:30:56.401Z,71.31
2022-09-15T10:33:22.970Z,74.12
2022-09-15T10:35:49.561Z,75.55
2022-09-15T10:38:26.593Z,76.41
2022-09-15T10:41:15.893Z,77.05
2022-09-15T10:43:51.635Z,76.52
2022-09-15T10:46:25.280Z,76.56
2022-09-15T10:49:10.258Z,76.06
2022-09-15T10:51:48.748Z,74.45
2022-09-15T10:54:18.538Z,74.44
2022-09-15T10:57:05.406Z,75.51
2022-09-15T10:59:43.257Z,75.32
2022-09-15T11:02:10.626Z,75.26
2022-09-15T11:04:56.820Z,74.70
2022-09-15T11:07:26.174Z,74.12
2022-09-15T11:10:13.012Z,73.18
2022-09-15T11:13:03.098Z,71.67
2022-09-15T11:15:35.887Z,70.98
2022-09-15T11:18:18.675Z,69.83
2022-09-15T11:21:04.409Z,67.96
2022-09-15T11:23:49.469Z,67.64
2022-09-15T11:26:19.610Z,67.61
2022-09-15T11:28:50.440Z,67.17
2022-09-15T11:31:43.372Z,67.16
2022-09-15T11:34:36.255Z,66.95
2022-09-15T11:37:10.174Z,66.73
2022-09-15T11:39:40.076Z,66.45
2022-09-15T11:42:09.664Z,66.05
2022-09-15T11:44:36.262Z,65.04
2022-09-15T11:47:02.968Z,64.83
2022-09-15T11:49:36.931Z,64.48
2022-09-15T11:52:11.375Z,64.00
2022-09-15T11:54:41.929Z,64.09
2022-09-15T11:57:16.513Z,64.60
2022-09-15T11:59:53.793Z,63.66
2022-09-15T12:02:23.763Z,63.58
2022-09-15T12:04:57.978Z,61.40
2022-09-15T12:07:33.876Z,59.14
2022-09-15T12:10:48.006Z,58.78
2022-09-15T12:13:26.759Z,59.31
2022-09-15T12:16:01.166Z,58.11
2022-09-15T12:18:54.212Z,58.38
2022-09-15T12:21:26.067Z,59.10
2022-09-15T12:23:58.321Z,58.74
2022-09-15T12:26:26.247Z,58.27
2022-09-15T12:29:02.693Z,57.56
2022-09-15T12:31:29.520Z,57.43
2022-09-15T12:34:07.117Z,57.34
2022-09-15T12:36:47.022Z,56.91
2022-09-15T12:39:58.219Z,56.62
2022-09-15T12:42:33.243Z,56.24
2022-09-15T12:45:27.353Z,55.26
2022-09-15T12:48:43.367Z,55.35
2022-09-15T12:51:11.950Z,54.96
2022-09-15T12:53:58.497Z,55.77
2022-09-15T12:56:51.717Z,54.97
2022-09-15T12:59:22.753Z,54.84
2022-09-15T13:01:59.549Z,53.91
2022-09-15T13:04:26.519Z,53.26
2022-09-15T13:07:14.814Z,52.89
2022-09-15T13:09:58.142Z,51.75
2022-09-15T13:12:29.955Z,52.20
2022-09-15T13:15:06.150Z,50.42
2022-09-15T13:17:33.885Z,50.33
2022-09-15T13:20:02.029Z,51.39
2022-09-15T13:22:38.648Z,50.44
2022-09-15T13:25:11.028Z,49.63
2022-09-15T13:27:52.350Z,50.04
2022-09-15T13:30:34.262Z,50.66
2022-09-15T13:33:14.018Z,50.81
2022-09-15T13:36:16.147Z,51.73
2022-09-15T13:39:01.122Z,52.03
2022-09-15T13:42:09.076Z,52.15
2022-09-15T13:45:03.158Z,51.48
2022-09-15T13:47:36.549Z,52.00
2022-09-15T13:50:06.181Z,51.97
2022-09-15T13:53:04.841Z,52.95
2022-09-15T13:55:41.090Z,53.82
2022-09-15T14:01:06.879Z,54.40
2022-09-15T14:03:46.176Z,54.00
2022-09-15T14:06:20.936Z,53.63
2022-09-15T14:08:50.170Z,54.39
2022-09-15T14:11:25.283Z,55.02
2022-09-15T14:13:52.076Z,55.43
2022-09-15T14:16:21.044Z,56.27
2022-09-15T14:18:47.591Z,56.97
2022-09-15T14:21:18.782Z,57.26
2022-09-15T14:23:49.182Z,57.58
2022-09-15T14:26:18.254Z,58.01
2022-09-15T14:29:18.403Z,57.64
2022-09-15T14:31:45.399Z,58.05
2022-09-15T14:34:42.065Z,58.52
2022-09-15T14:37:20.831Z,58.67
2022-09-15T14:42:50.093Z,58.07
2022-09-15T14:45:54.173Z,57.53
2022-09-15T14:48:34.371Z,58.16
2022-09-15T14:51:13.699Z,58.42
2022-09-15T14:53:43.038Z,58.76
2022-09-15T14:56:30.518Z,58.78
2022-09-15T14:59:05.004Z,59.07
2022-09-15T15:01:54.428Z,58.71
2022-09-15T15:04:30.135Z,58.80
2022-09-15T15:07:08.336Z,59.00
2022-09-15T15:09:34.933Z,59.31
2022-09-15T15:12:07.829Z,59.68
2022-09-15T15:14:37.585Z,59.88
2022-09-15T15:17:16.913Z,60.43
2022-09-15T15:19:46.237Z,60.85
2022-09-15T15:22:21.896Z,61.02
2022-09-15T15:24:49.716Z,60.50
2022-09-15T15:27:34.574Z,60.84
2022-09-15T15:30:31.322Z,60.76
2022-09-15T15:33:06.474Z,60.86
2022-09-15T15:35:35.861Z,61.34
2022-09-15T15:38:11.782Z,62.29
2022-09-15T15:40:40.712Z,62.54
2022-09-15T15:43:32.050Z,62.38
2022-09-15T15:46:04.210Z,62.93
2022-09-15T15:48:49.989Z,62.87
2022-09-15T15:51:17.128Z,62.64
2022-09-15T15:53:43.689Z,62.70
2022-09-15T15:56:10.505Z,63.25
2022-09-15T15:58:37.125Z,63.48
2022-09-15T16:01:03.977Z,63.48
2022-09-15T16:03:30.832Z,62.53
2022-09-15T16:05:59.587Z,62.72
2022-09-15T16:08:33.149Z,62.86
2022-09-15T16:11:03.181Z,63.30
2022-09-15T16:13:29.748Z,63.27
2022-09-15T16:15:57.973Z,63.45
2022-09-15T16:18:24.903Z,63.59
2022-09-15T16:20:51.710Z,64.19
2022-09-15T16:23:21.181Z,64.94
2022-09-15T16:25:59.308Z,64.99
2022-09-15T16:28:26.218Z,64.66
2022-09-15T16:30:53.011Z,64.81
2022-09-15T16:33:20.287Z,65.66
2022-09-15T16:36:08.303Z,66.46
2022-09-15T16:38:47.353Z,66.85
2022-09-15T16:41:23.118Z,67.55
2022-09-15T16:43:58.679Z,68.65
2022-09-15T16:46:25.626Z,69.38
2022-09-15T16:48:52.399Z,70.27
2022-09-15T16:51:28.678Z,70.02
2022-09-15T16:54:03.878Z,70.70
2022-09-15T16:56:30.569Z,70.43
2022-09-15T16:59:00.439Z,70.90
2022-09-15T17:01:27.746Z,72.08
2022-09-15T17:03:54.660Z,71.95
2022-09-15T17:06:22.278Z,72.03
2022-09-15T17:08:49.345Z,71.75
2022-09-15T17:11:18.417Z,71.89
2022-09-15T17:13:45.798Z,71.79
2022-09-15T17:16:14.969Z,71.42
2022-09-15T17:18:41.741Z,71.40
2022-09-15T17:21:12.047Z,71.90
2022-09-15T17:23:41.288Z,71.54
2022-09-15T17:26:13.849Z,71.88
2022-09-15T17:28:42.565Z,71.96
2022-09-15T17:31:15.944Z,72.10
2022-09-15T17:33:43.062Z,72.48
2022-09-15T17:36:10.020Z,72.45
2022-09-15T17:38:36.804Z,72.48
2022-09-15T17:41:03.540Z,72.30
2022-09-15T17:43:31.352Z,72.25
2022-09-15T17:45:58.384Z,73.44
2022-09-15T17:48:25.351Z,73.72
2022-09-15T17:50:52.434Z,73.34
2022-09-15T17:53:22.818Z,73.82
2022-09-15T17:55:57.278Z,74.05
2022-09-15T17:58:26.631Z,74.38
2022-09-15T18:00:53.997Z,74.44
2022-09-15T18:03:28.032Z,74.62
2022-09-15T18:05:59.070Z,74.78
2022-09-15T18:08:25.898Z,74.91
2022-09-15T18:10:52.514Z,74.69
2022-09-15T18:13:20.426Z,74.77
2022-09-15T18:15:48.949Z,75.24
2022-09-15T18:18:17.182Z,75.23
2022-09-15T18:20:47.527Z,75.01
2022-09-15T18:23:14.849Z,75.62
2022-09-15T18:25:41.666Z,74.98
2022-09-15T18:28:08.344Z,75.00
2022-09-15T18:30:40.714Z,74.78
2022-09-15T18:33:27.541Z,74.69
2022-09-15T18:35:55.780Z,74.25
2022-09-15T18:38:23.330Z,74.53
2022-09-15T18:40:54.195Z,74.83
2022-09-15T18:43:21.384Z,75.39
2022-09-15T18:45:48.410Z,75.46
2022-09-15T18:48:15.488Z,75.69
2022-09-15T18:50:43.614Z,75.55
2022-09-15T18:53:10.357Z,75.91
2022-09-15T18:55:36.944Z,76.56
2022-09-15T18:58:03.483Z,77.27
2022-09-15T19:00:32.318Z,77.23
2022-09-15T19:02:59.886Z,78.14
2022-09-15T19:05:27.007Z,78.23
2022-09-15T19:07:53.601Z,78.16
2022-09-15T19:10:20.240Z,78.40
2022-09-15T19:12:46.708Z,78.25
2022-09-15T19:15:13.580Z,78.39
2022-09-15T19:17:40.977Z,78.45
2022-09-15T19:20:08.561Z,78.74
2022-09-15T19:22:35.654Z,79.08
2022-09-15T19:25:02.188Z,79.33
2022-09-15T19:27:28.961Z,79.49
2022-09-15T19:29:55.488Z,79.17
2022-09-15T19:32:22.699Z,79.11
2022-09-15T19:34:49.326Z,79.44
2022-09-15T19:37:18.886Z,79.93
2022-09-15T19:39:47.210Z,80.62
2022-09-15T19:44:42.360Z,80.28
2022-09-15T19:47:09.444Z,80.20
2022-09-15T19:49:36.286Z,79.78
2022-09-15T19:52:06.855Z,80.36
2022-09-15T19:54:34.635Z,80.53
2022-09-15T19:57:01.782Z,80.11
2022-09-15T19:59:31.360Z,80.69
2022-09-15T20:01:59.169Z,80.21
2022-09-15T20:04:32.104Z,80.27
2022-09-15T20:06:58.716Z,80.34
2022-09-15T20:09:26.229Z,80.57
2022-09-15T20:11:52.890Z,80.18
2022-09-15T20:14:19.578Z,80.26
2022-09-15T20:16:46.252Z,80.09
2022-09-15T20:19:13.080Z,80.82
2022-09-15T20:21:55.794Z,80.87
2022-09-15T20:24:23.948Z,80.51
2022-09-15T20:26:51.348Z,80.68
2022-09-15T20:29:18.500Z,81.55
2022-09-15T20:31:45.167Z,80.90
2022-09-15T20:34:11.989Z,81.18
2022-09-15T20:36:39.120Z,81.07
2022-09-15T20:39:13.113Z,81.41
2022-09-15T20:41:44.976Z,81.11
2022-09-15T20:44:12.330Z,81.39
2022-09-15T20:46:39.152Z,82.73
2022-09-15T20:49:06.619Z,82.94
2022-09-15T20:51:33.947Z,82.61
2022-09-15T20:54:03.412Z,82.70
2022-09-15T20:56:31.804Z,83.14
2022-09-15T20:59:00.122Z,82.86
2022-09-15T21:01:36.888Z,82.59
2022-09-15T21:04:04.966Z,82.60
2022-09-15T21:06:31.656Z,82.63
2022-09-15T21:08:58.689Z,82.39
2022-09-15T21:11:27.562Z,82.30
2022-09-15T21:13:55.542Z,82.15
2022-09-15T21:16:25.018Z,82.47
2022-09-15T21:18:51.985Z,82.40
2022-09-15T21:21:22.980Z,82.72
2022-09-15T21:23:55.230Z,82.66
2022-09-15T21:26:27.158Z,82.72
2022-09-15T21:28:54.655Z,83.12
2022-09-15T21:31:22.974Z,83.21
2022-09-15T21:33:49.939Z,82.96
2022-09-15T21:36:22.272Z,83.38
2022-09-15T21:38:50.905Z,83.10
2022-09-15T21:41:20.962Z,83.22
2022-09-15T21:43:49.047Z,83.14
2022-09-15T21:46:18.359Z,83.12
2022-09-15T21:48:47.204Z,82.99
2022-09-15T21:51:24.531Z,82.74
2022-09-15T21:53:55.719Z,82.68
2022-09-15T21:56:23.299Z,82.28
2022-09-15T21:58:50.345Z,82.35
2022-09-15T22:01:25.887Z,82.16
2022-09-15T22:03:54.989Z,81.78
2022-09-15T22:06:27.713Z,81.45
2022-09-15T22:08:54.998Z,81.06
2022-09-15T22:11:22.417Z,81.02
2022-09-15T22:13:49.094Z,80.50
2022-09-15T22:16:21.242Z,80.00
2022-09-15T22:18:48.302Z,79.67
2022-09-15T22:21:20.728Z,79.28
2022-09-15T22:23:48.976Z,78.93
2022-09-15T22:26:21.089Z,77.86
2022-09-15T22:28:48.328Z,77.53
2022-09-15T22:31:17.001Z,76.76
2022-09-15T22:33:44.518Z,75.86
2022-09-15T22:36:15.415Z,76.10
2022-09-15T22:38:42.557Z,76.99
2022-09-15T22:41:14.501Z,77.18
2022-09-15T22:43:43.050Z,77.31
2022-09-15T22:46:11.302Z,76.70
2022-09-15T22:48:43.050Z,76.48
2022-09-15T22:51:11.254Z,75.92
2022-09-15T22:53:37.959Z,76.59
2022-09-15T22:56:12.402Z,77.11
2022-09-15T22:58:43.239Z,77.76
2022-09-15T23:01:13.585Z,78.44
2022-09-15T23:03:40.645Z,78.17
2022-09-15T23:06:07.920Z,78.18
2022-09-15T23:08:35.731Z,78.44
2022-09-15T23:11:08.116Z,78.30
2022-09-15T23:13:35.212Z,77.95
2022-09-15T23:16:02.265Z,78.00
2022-09-15T23:18:29.619Z,76.88
2022-09-15T23:21:00.548Z,78.34
2022-09-15T23:23:28.283Z,79.34
2022-09-15T23:25:55.593Z,79.46
2022-09-15T23:28:23.502Z,79.32
2022-09-15T23:30:54.527Z,79.18
2022-09-15T23:33:22.121Z,78.66
2022-09-15T23:35:48.983Z,78.47
2022-09-15T23:38:16.328Z,79.12
2022-09-15T23:40:43.701Z,79.31
2022-09-15T23:43:11.409Z,78.81
2022-09-15T23:45:38.520Z,78.97
2022-09-15T23:48:07.040Z,78.94
2022-09-15T23:50:34.640Z,79.31
2022-09-15T23:53:01.428Z,79.92
2022-09-15T23:55:28.125Z,79.69
2022-09-15T23:57:54.923Z,80.07
